Terminal Aerodrome Forecast
Issued by NWS

Home | Current Version | Previous Version | Text Only | Print | Product List | Glossary On
Versions: 1 2 3 4 5 6 7 8 9 10 11 12 13 14 15 16 17 18 19 20
000
FTUS43 KDMX 060531
TAFFOD
TAF
KFOD 060531Z 0606/0706 28010G15KT P6SM VCSH OVC029
     FM060700 29010KT P6SM BKN016
     FM061000 29014KT P6SM SCT016 BKN022
     FM061300 26016G28KT P6SM SCT025 BKN150
     FM062300 26013G22KT P6SM SCT150=

USA.gov is the U.S. government's official web portal to all federal, state and local government web resources and services.